Smockville, Indiana
Current Conditions -  °F | °C
As of 9:55 PM on Sunday 21 Dec 2014 (Local Time) from K4I7 Reporting Station
Clear Clear  
Wind Chill: -4°   Ceiling: Unl
Heat Index: -1°   Visibility: 7mi
Dew Point: -4°   Wind: 5mph
Humidity: 80%   Direction: 110°ESE
Pressure: 30.08"   Gusts: NA
Location:  39.5774°N, 87.0605°W
Report Text: K4I7 220255Z AUTO 11004KT 7SM CLR M01/M04 A3008 RMK AO2
Loading
Personal Weather Stations






























Interactive Weather Map New forecast layout! Learn more

10-Day Weather Forecast

Advertisements
Track Severe Weather on mobile